sensor_id;sensor_type;location;lat;lon;timestamp;temperature;humidity
7206;DHT22;3644;53.480;10.004;2024-02-26T00:00:26;7.90;99.90
7206;DHT22;3644;53.480;10.004;2024-02-26T00:02:52;7.70;99.90
7206;DHT22;3644;53.480;10.004;2024-02-26T00:05:17;7.70;99.90
7206;DHT22;3644;53.480;10.004;2024-02-26T00:07:43;7.60;99.90
7206;DHT22;3644;53.480;10.004;2024-02-26T00:10:09;7.40;99.90
7206;DHT22;3644;53.480;10.004;2024-02-26T00:12:34;7.50;99.90
7206;DHT22;3644;53.480;10.004;2024-02-26T00:15:00;7.60;99.90
7206;DHT22;3644;53.480;10.004;2024-02-26T00:17:25;7.50;99.90
7206;DHT22;3644;53.480;10.004;2024-02-26T00:19:51;7.50;99.90
7206;DHT22;3644;53.480;10.004;2024-02-26T00:22:16;7.40;99.90
7206;DHT22;3644;53.480;10.004;2024-02-26T00:24:42;7.40;99.90
7206;DHT22;3644;53.480;10.004;2024-02-26T00:27:08;7.40;99.90
7206;DHT22;3644;53.480;10.004;2024-02-26T00:29:33;7.30;99.90
7206;DHT22;3644;53.480;10.004;2024-02-26T00:31:59;7.30;99.90
7206;DHT22;3644;53.480;10.004;2024-02-26T00:34:24;7.30;99.90
7206;DHT22;3644;53.480;10.004;2024-02-26T00:36:50;7.30;99.90
7206;DHT22;3644;53.480;10.004;2024-02-26T00:39:15;7.20;99.90
7206;DHT22;3644;53.480;10.004;2024-02-26T00:41:41;7.10;99.90
7206;DHT22;3644;53.480;10.004;2024-02-26T00:44:06;7.00;99.90
7206;DHT22;3644;53.480;10.004;2024-02-26T00:46:32;6.60;99.90
7206;DHT22;3644;53.480;10.004;2024-02-26T00:48:58;6.80;99.90
7206;DHT22;3644;53.480;10.004;2024-02-26T00:51:23;6.80;99.90
7206;DHT22;3644;53.480;10.004;2024-02-26T00:53:49;6.80;99.90
7206;DHT22;3644;53.480;10.004;2024-02-26T00:56:14;6.90;99.90
7206;DHT22;3644;53.480;10.004;2024-02-26T00:58:40;6.80;99.90
7206;DHT22;3644;53.480;10.004;2024-02-26T01:01:05;6.90;99.90
7206;DHT22;3644;53.480;10.004;2024-02-26T01:03:31;6.80;99.90
7206;DHT22;3644;53.480;10.004;2024-02-26T01:05:56;6.80;99.90
7206;DHT22;3644;53.480;10.004;2024-02-26T01:08:22;6.60;99.90
7206;DHT22;3644;53.480;10.004;2024-02-26T01:10:47;6.60;99.90
7206;DHT22;3644;53.480;10.004;2024-02-26T01:13:13;6.50;99.90
7206;DHT22;3644;53.480;10.004;2024-02-26T01:15:39;6.50;99.90
7206;DHT22;3644;53.480;10.004;2024-02-26T01:18:04;6.40;99.90
7206;DHT22;3644;53.480;10.004;2024-02-26T01:20:30;6.30;99.90
7206;DHT22;3644;53.480;10.004;2024-02-26T01:22:55;6.30;99.90
7206;DHT22;3644;53.480;10.004;2024-02-26T01:25:21;6.30;99.90
7206;DHT22;3644;53.480;10.004;2024-02-26T01:27:46;6.10;99.90
7206;DHT22;3644;53.480;10.004;2024-02-26T01:30:12;6.10;99.90
7206;DHT22;3644;53.480;10.004;2024-02-26T01:32:38;6.30;99.90
7206;DHT22;3644;53.480;10.004;2024-02-26T01:35:03;6.20;99.90
7206;DHT22;3644;53.480;10.004;2024-02-26T01:37:30;6.00;99.90
7206;DHT22;3644;53.480;10.004;2024-02-26T01:39:56;6.10;99.90
7206;DHT22;3644;53.480;10.004;2024-02-26T01:42:21;6.10;99.90
7206;DHT22;3644;53.480;10.004;2024-02-26T01:44:47;6.10;99.90
7206;DHT22;3644;53.480;10.004;2024-02-26T01:47:13;6.10;99.90
7206;DHT22;3644;53.480;10.004;2024-02-26T01:49:39;6.10;99.90
7206;DHT22;3644;53.480;10.004;2024-02-26T01:52:06;6.10;99.90
7206;DHT22;3644;53.480;10.004;2024-02-26T01:54:34;6.10;99.90
7206;DHT22;3644;53.480;10.004;2024-02-26T01:57:02;6.10;99.90
7206;DHT22;3644;53.480;10.004;2024-02-26T01:59:28;5.90;99.90
7206;DHT22;3644;53.480;10.004;2024-02-26T02:01:56;5.80;99.90
7206;DHT22;3644;53.480;10.004;2024-02-26T02:04:23;5.90;99.90
7206;DHT22;3644;53.480;10.004;2024-02-26T02:06:49;5.90;99.90
7206;DHT22;3644;53.480;10.004;2024-02-26T02:09:15;5.80;99.90
7206;DHT22;3644;53.480;10.004;2024-02-26T02:11:41;5.80;99.90
7206;DHT22;3644;53.480;10.004;2024-02-26T02:14:07;5.80;99.90
7206;DHT22;3644;53.480;10.004;2024-02-26T02:16:32;5.80;99.90
7206;DHT22;3644;53.480;10.004;2024-02-26T02:18:58;5.80;99.90
7206;DHT22;3644;53.480;10.004;2024-02-26T02:21:24;5.80;99.90
7206;DHT22;3644;53.480;10.004;2024-02-26T02:23:50;5.70;99.90
7206;DHT22;3644;53.480;10.004;2024-02-26T02:26:15;5.70;99.90
7206;DHT22;3644;53.480;10.004;2024-02-26T02:28:41;5.60;99.90
7206;DHT22;3644;53.480;10.004;2024-02-26T02:31:07;5.70;99.90
7206;DHT22;3644;53.480;10.004;2024-02-26T02:33:34;5.70;99.90
7206;DHT22;3644;53.480;10.004;2024-02-26T02:35:59;5.70;99.90
7206;DHT22;3644;53.480;10.004;2024-02-26T02:38:25;5.70;99.90
7206;DHT22;3644;53.480;10.004;2024-02-26T02:40:52;5.70;99.90
7206;DHT22;3644;53.480;10.004;2024-02-26T02:43:17;5.70;99.90
7206;DHT22;3644;53.480;10.004;2024-02-26T02:45:43;5.70;99.90
7206;DHT22;3644;53.480;10.004;2024-02-26T02:48:08;5.60;99.90
7206;DHT22;3644;53.480;10.004;2024-02-26T02:50:34;5.40;99.90
7206;DHT22;3644;53.480;10.004;2024-02-26T02:52:59;5.40;99.90
7206;DHT22;3644;53.480;10.004;2024-02-26T02:55:25;5.30;99.90
7206;DHT22;3644;53.480;10.004;2024-02-26T02:57:50;5.20;99.90
7206;DHT22;3644;53.480;10.004;2024-02-26T03:00:16;5.10;99.90
7206;DHT22;3644;53.480;10.004;2024-02-26T03:02:42;5.10;99.90
7206;DHT22;3644;53.480;10.004;2024-02-26T03:05:08;5.20;99.90
7206;DHT22;3644;53.480;10.004;2024-02-26T03:07:34;5.20;99.90
7206;DHT22;3644;53.480;10.004;2024-02-26T03:09:59;5.30;99.90
7206;DHT22;3644;53.480;10.004;2024-02-26T03:12:25;5.20;99.90
7206;DHT22;3644;53.480;10.004;2024-02-26T03:14:50;5.20;99.90
7206;DHT22;3644;53.480;10.004;2024-02-26T03:17:16;5.00;99.90
7206;DHT22;3644;53.480;10.004;2024-02-26T03:19:44;5.10;99.90
7206;DHT22;3644;53.480;10.004;2024-02-26T03:22:12;5.10;99.90
7206;DHT22;3644;53.480;10.004;2024-02-26T03:24:38;5.20;99.90
7206;DHT22;3644;53.480;10.004;2024-02-26T03:27:04;5.20;99.90
7206;DHT22;3644;53.480;10.004;2024-02-26T03:29:35;5.20;99.90
7206;DHT22;3644;53.480;10.004;2024-02-26T03:32:00;5.30;99.90
7206;DHT22;3644;53.480;10.004;2024-02-26T03:34:26;5.20;99.90
7206;DHT22;3644;53.480;10.004;2024-02-26T03:36:52;5.10;99.90
7206;DHT22;3644;53.480;10.004;2024-02-26T03:39:17;5.10;99.90
7206;DHT22;3644;53.480;10.004;2024-02-26T03:41:42;5.00;99.90
7206;DHT22;3644;53.480;10.004;2024-02-26T03:44:08;5.00;99.90
7206;DHT22;3644;53.480;10.004;2024-02-26T03:46:33;5.00;99.90
7206;DHT22;3644;53.480;10.004;2024-02-26T03:48:59;5.10;99.90
7206;DHT22;3644;53.480;10.004;2024-02-26T03:51:24;5.10;99.90
7206;DHT22;3644;53.480;10.004;2024-02-26T03:53:50;5.00;99.90
7206;DHT22;3644;53.480;10.004;2024-02-26T03:56:15;5.10;99.90
7206;DHT22;3644;53.480;10.004;2024-02-26T03:58:41;5.10;99.90
7206;DHT22;3644;53.480;10.004;2024-02-26T04:01:08;5.10;99.90
7206;DHT22;3644;53.480;10.004;2024-02-26T04:03:34;5.00;99.90
7206;DHT22;3644;53.480;10.004;2024-02-26T04:05:59;5.00;99.90
7206;DHT22;3644;53.480;10.004;2024-02-26T04:08:25;5.00;99.90
7206;DHT22;3644;53.480;10.004;2024-02-26T04:10:50;4.90;99.90
7206;DHT22;3644;53.480;10.004;2024-02-26T04:13:17;4.90;99.90
7206;DHT22;3644;53.480;10.004;2024-02-26T04:15:43;4.90;99.90
7206;DHT22;3644;53.480;10.004;2024-02-26T04:18:08;5.00;99.90
7206;DHT22;3644;53.480;10.004;2024-02-26T04:20:34;5.00;99.90
7206;DHT22;3644;53.480;10.004;2024-02-26T04:22:59;5.00;99.90
7206;DHT22;3644;53.480;10.004;2024-02-26T04:25:25;4.90;99.90
7206;DHT22;3644;53.480;10.004;2024-02-26T04:27:50;5.00;99.90
7206;DHT22;3644;53.480;10.004;2024-02-26T04:30:16;5.00;99.90
7206;DHT22;3644;53.480;10.004;2024-02-26T04:32:42;4.90;99.90
7206;DHT22;3644;53.480;10.004;2024-02-26T04:35:08;5.00;99.90
7206;DHT22;3644;53.480;10.004;2024-02-26T04:37:33;5.10;99.90
7206;DHT22;3644;53.480;10.004;2024-02-26T04:40:00;5.00;99.90
7206;DHT22;3644;53.480;10.004;2024-02-26T04:42:26;5.00;99.90
7206;DHT22;3644;53.480;10.004;2024-02-26T04:44:52;4.80;99.90
7206;DHT22;3644;53.480;10.004;2024-02-26T04:47:17;4.80;99.90
7206;DHT22;3644;53.480;10.004;2024-02-26T04:49:43;4.60;99.90
7206;DHT22;3644;53.480;10.004;2024-02-26T04:52:08;4.80;99.90
7206;DHT22;3644;53.480;10.004;2024-02-26T04:54:34;4.80;99.90
7206;DHT22;3644;53.480;10.004;2024-02-26T04:56:59;4.80;99.90
7206;DHT22;3644;53.480;10.004;2024-02-26T04:59:25;4.70;99.90
7206;DHT22;3644;53.480;10.004;2024-02-26T05:01:50;4.70;99.90
7206;DHT22;3644;53.480;10.004;2024-02-26T05:04:18;4.60;99.90
7206;DHT22;3644;53.480;10.004;2024-02-26T05:06:43;4.80;99.90
7206;DHT22;3644;53.480;10.004;2024-02-26T05:09:09;4.80;99.90
7206;DHT22;3644;53.480;10.004;2024-02-26T05:11:34;4.80;99.90
7206;DHT22;3644;53.480;10.004;2024-02-26T05:14:00;4.80;99.90
7206;DHT22;3644;53.480;10.004;2024-02-26T05:16:26;4.80;99.90
7206;DHT22;3644;53.480;10.004;2024-02-26T05:18:52;4.80;99.90
7206;DHT22;3644;53.480;10.004;2024-02-26T05:21:18;4.70;99.90
7206;DHT22;3644;53.480;10.004;2024-02-26T05:23:43;4.80;99.90
7206;DHT22;3644;53.480;10.004;2024-02-26T05:26:10;4.80;99.90
7206;DHT22;3644;53.480;10.004;2024-02-26T05:28:36;4.80;99.90
7206;DHT22;3644;53.480;10.004;2024-02-26T05:31:03;4.80;99.90
7206;DHT22;3644;53.480;10.004;2024-02-26T05:33:28;4.80;99.90
7206;DHT22;3644;53.480;10.004;2024-02-26T05:35:54;4.80;99.90
7206;DHT22;3644;53.480;10.004;2024-02-26T05:38:19;4.90;99.90
7206;DHT22;3644;53.480;10.004;2024-02-26T05:40:45;4.90;99.90
7206;DHT22;3644;53.480;10.004;2024-02-26T05:43:11;4.70;99.90
7206;DHT22;3644;53.480;10.004;2024-02-26T05:45:36;4.80;99.90
7206;DHT22;3644;53.480;10.004;2024-02-26T05:48:02;4.90;99.90
7206;DHT22;3644;53.480;10.004;2024-02-26T05:50:28;4.80;99.90
7206;DHT22;3644;53.480;10.004;2024-02-26T05:52:54;4.90;99.90
7206;DHT22;3644;53.480;10.004;2024-02-26T05:55:19;4.80;99.90
7206;DHT22;3644;53.480;10.004;2024-02-26T05:57:44;4.80;99.90
7206;DHT22;3644;53.480;10.004;2024-02-26T06:00:10;4.90;99.90
7206;DHT22;3644;53.480;10.004;2024-02-26T06:02:38;4.90;99.90
7206;DHT22;3644;53.480;10.004;2024-02-26T06:05:03;4.90;99.90
7206;DHT22;3644;53.480;10.004;2024-02-26T06:07:29;5.00;99.90
7206;DHT22;3644;53.480;10.004;2024-02-26T06:09:54;5.00;99.90
7206;DHT22;3644;53.480;10.004;2024-02-26T06:12:20;5.00;99.90
7206;DHT22;3644;53.480;10.004;2024-02-26T06:14:45;5.00;99.90
7206;DHT22;3644;53.480;10.004;2024-02-26T06:17:11;5.00;99.90
7206;DHT22;3644;53.480;10.004;2024-02-26T06:19:37;5.00;99.90
7206;DHT22;3644;53.480;10.004;2024-02-26T06:22:02;5.10;99.90
7206;DHT22;3644;53.480;10.004;2024-02-26T06:24:27;5.10;99.90
7206;DHT22;3644;53.480;10.004;2024-02-26T06:26:53;5.10;99.90
7206;DHT22;3644;53.480;10.004;2024-02-26T06:29:18;4.90;99.90
7206;DHT22;3644;53.480;10.004;2024-02-26T06:31:44;5.00;99.90
7206;DHT22;3644;53.480;10.004;2024-02-26T06:34:09;5.10;99.90
7206;DHT22;3644;53.480;10.004;2024-02-26T06:36:35;5.10;99.90
7206;DHT22;3644;53.480;10.004;2024-02-26T06:39:00;5.10;99.90
7206;DHT22;3644;53.480;10.004;2024-02-26T06:41:26;5.10;99.90
7206;DHT22;3644;53.480;10.004;2024-02-26T06:43:55;5.20;99.90
7206;DHT22;3644;53.480;10.004;2024-02-26T06:46:21;5.30;99.90
7206;DHT22;3644;53.480;10.004;2024-02-26T06:48:48;5.10;99.90
7206;DHT22;3644;53.480;10.004;2024-02-26T06:51:13;5.20;99.90
7206;DHT22;3644;53.480;10.004;2024-02-26T06:53:39;5.20;99.90
7206;DHT22;3644;53.480;10.004;2024-02-26T06:56:04;5.20;99.90
7206;DHT22;3644;53.480;10.004;2024-02-26T06:58:30;5.30;99.90
7206;DHT22;3644;53.480;10.004;2024-02-26T07:00:55;5.30;99.90
7206;DHT22;3644;53.480;10.004;2024-02-26T07:03:21;5.40;99.90
7206;DHT22;3644;53.480;10.004;2024-02-26T07:05:48;5.40;99.90
7206;DHT22;3644;53.480;10.004;2024-02-26T07:08:13;5.40;99.90
7206;DHT22;3644;53.480;10.004;2024-02-26T07:10:39;5.40;99.90
7206;DHT22;3644;53.480;10.004;2024-02-26T07:13:04;5.40;99.90
7206;DHT22;3644;53.480;10.004;2024-02-26T07:15:30;5.50;99.90
7206;DHT22;3644;53.480;10.004;2024-02-26T07:17:55;5.40;99.90
7206;DHT22;3644;53.480;10.004;2024-02-26T07:20:21;5.50;99.90
7206;DHT22;3644;53.480;10.004;2024-02-26T07:22:47;5.60;99.90
7206;DHT22;3644;53.480;10.004;2024-02-26T07:25:12;5.60;99.90
7206;DHT22;3644;53.480;10.004;2024-02-26T07:27:41;5.50;99.90
7206;DHT22;3644;53.480;10.004;2024-02-26T07:30:07;5.60;99.90
7206;DHT22;3644;53.480;10.004;2024-02-26T07:32:34;5.50;99.90
7206;DHT22;3644;53.480;10.004;2024-02-26T07:34:59;5.60;99.90
7206;DHT22;3644;53.480;10.004;2024-02-26T07:37:25;5.70;99.90
7206;DHT22;3644;53.480;10.004;2024-02-26T07:39:50;5.80;99.90
7206;DHT22;3644;53.480;10.004;2024-02-26T07:42:16;6.00;99.90
7206;DHT22;3644;53.480;10.004;2024-02-26T07:44:41;6.10;99.90
7206;DHT22;3644;53.480;10.004;2024-02-26T07:47:09;6.20;99.90
7206;DHT22;3644;53.480;10.004;2024-02-26T07:49:34;6.20;99.90
7206;DHT22;3644;53.480;10.004;2024-02-26T07:52:00;6.30;99.90
7206;DHT22;3644;53.480;10.004;2024-02-26T07:54:26;6.50;99.90
7206;DHT22;3644;53.480;10.004;2024-02-26T07:56:51;6.40;99.90
7206;DHT22;3644;53.480;10.004;2024-02-26T07:59:17;6.50;99.90
7206;DHT22;3644;53.480;10.004;2024-02-26T08:01:42;6.50;99.90
7206;DHT22;3644;53.480;10.004;2024-02-26T08:04:08;6.50;99.90
7206;DHT22;3644;53.480;10.004;2024-02-26T08:06:34;6.50;99.90
7206;DHT22;3644;53.480;10.004;2024-02-26T08:08:59;6.50;99.90
7206;DHT22;3644;53.480;10.004;2024-02-26T08:11:25;6.60;99.90
7206;DHT22;3644;53.480;10.004;2024-02-26T08:13:50;6.60;99.90
7206;DHT22;3644;53.480;10.004;2024-02-26T08:16:16;6.80;99.90
7206;DHT22;3644;53.480;10.004;2024-02-26T08:18:41;6.80;99.90
7206;DHT22;3644;53.480;10.004;2024-02-26T08:21:07;6.80;99.90
7206;DHT22;3644;53.480;10.004;2024-02-26T08:23:34;7.00;99.90
7206;DHT22;3644;53.480;10.004;2024-02-26T08:25:59;6.90;99.90
7206;DHT22;3644;53.480;10.004;2024-02-26T08:28:25;7.00;99.90
7206;DHT22;3644;53.480;10.004;2024-02-26T08:30:50;6.90;99.90
7206;DHT22;3644;53.480;10.004;2024-02-26T08:33:16;7.00;99.90
7206;DHT22;3644;53.480;10.004;2024-02-26T08:35:41;7.10;99.90
7206;DHT22;3644;53.480;10.004;2024-02-26T08:38:07;7.20;99.90
7206;DHT22;3644;53.480;10.004;2024-02-26T08:40:32;7.30;99.90
7206;DHT22;3644;53.480;10.004;2024-02-26T08:42:57;7.20;99.90
7206;DHT22;3644;53.480;10.004;2024-02-26T08:45:23;7.30;99.90
7206;DHT22;3644;53.480;10.004;2024-02-26T08:47:49;7.30;99.90
7206;DHT22;3644;53.480;10.004;2024-02-26T08:50:15;7.30;99.90
7206;DHT22;3644;53.480;10.004;2024-02-26T08:52:40;7.30;99.90
7206;DHT22;3644;53.480;10.004;2024-02-26T08:55:06;7.20;99.90
7206;DHT22;3644;53.480;10.004;2024-02-26T08:57:34;7.20;99.90
7206;DHT22;3644;53.480;10.004;2024-02-26T09:00:00;7.30;99.90
7206;DHT22;3644;53.480;10.004;2024-02-26T09:02:26;7.40;99.90
7206;DHT22;3644;53.480;10.004;2024-02-26T09:04:52;7.40;99.90
7206;DHT22;3644;53.480;10.004;2024-02-26T09:07:20;7.60;99.90
7206;DHT22;3644;53.480;10.004;2024-02-26T09:09:46;7.40;99.90
7206;DHT22;3644;53.480;10.004;2024-02-26T09:12:11;7.30;99.90
7206;DHT22;3644;53.480;10.004;2024-02-26T09:14:37;7.20;99.90
7206;DHT22;3644;53.480;10.004;2024-02-26T09:17:02;7.00;99.90
7206;DHT22;3644;53.480;10.004;2024-02-26T09:19:28;6.80;99.90
7206;DHT22;3644;53.480;10.004;2024-02-26T09:21:54;6.90;99.90
7206;DHT22;3644;53.480;10.004;2024-02-26T09:24:23;6.90;99.90
7206;DHT22;3644;53.480;10.004;2024-02-26T09:26:49;7.20;99.90
7206;DHT22;3644;53.480;10.004;2024-02-26T09:29:15;7.10;99.90
7206;DHT22;3644;53.480;10.004;2024-02-26T09:31:40;7.30;99.90
7206;DHT22;3644;53.480;10.004;2024-02-26T09:34:07;7.30;99.90
7206;DHT22;3644;53.480;10.004;2024-02-26T09:36:33;6.90;99.90
7206;DHT22;3644;53.480;10.004;2024-02-26T09:38:59;6.70;99.90
7206;DHT22;3644;53.480;10.004;2024-02-26T09:41:30;7.00;99.90
7206;DHT22;3644;53.480;10.004;2024-02-26T09:43:58;7.00;99.90
7206;DHT22;3644;53.480;10.004;2024-02-26T09:46:27;6.90;99.90
7206;DHT22;3644;53.480;10.004;2024-02-26T09:48:53;7.20;99.90
7206;DHT22;3644;53.480;10.004;2024-02-26T09:51:19;7.20;99.90
7206;DHT22;3644;53.480;10.004;2024-02-26T09:53:51;7.20;99.90
7206;DHT22;3644;53.480;10.004;2024-02-26T09:56:17;7.10;99.90
7206;DHT22;3644;53.480;10.004;2024-02-26T09:58:43;6.90;99.90
7206;DHT22;3644;53.480;10.004;2024-02-26T10:01:15;7.00;99.90
7206;DHT22;3644;53.480;10.004;2024-02-26T10:03:42;6.80;99.90
7206;DHT22;3644;53.480;10.004;2024-02-26T10:06:09;6.90;99.90
7206;DHT22;3644;53.480;10.004;2024-02-26T10:08:35;7.00;99.90
7206;DHT22;3644;53.480;10.004;2024-02-26T10:11:02;7.10;99.90
7206;DHT22;3644;53.480;10.004;2024-02-26T10:13:28;7.50;99.90
7206;DHT22;3644;53.480;10.004;2024-02-26T10:15:53;7.00;99.90
7206;DHT22;3644;53.480;10.004;2024-02-26T10:18:19;7.20;99.90
7206;DHT22;3644;53.480;10.004;2024-02-26T10:21:01;7.20;99.90
7206;DHT22;3644;53.480;10.004;2024-02-26T10:23:29;7.40;99.90
7206;DHT22;3644;53.480;10.004;2024-02-26T10:25:55;7.30;99.90
7206;DHT22;3644;53.480;10.004;2024-02-26T10:28:22;7.30;99.90
7206;DHT22;3644;53.480;10.004;2024-02-26T10:30:47;7.30;99.90
7206;DHT22;3644;53.480;10.004;2024-02-26T10:33:13;7.20;99.90
7206;DHT22;3644;53.480;10.004;2024-02-26T10:35:40;7.50;99.90
7206;DHT22;3644;53.480;10.004;2024-02-26T10:38:10;7.90;99.90
7206;DHT22;3644;53.480;10.004;2024-02-26T10:40:35;8.10;99.90
7206;DHT22;3644;53.480;10.004;2024-02-26T10:43:02;8.40;99.90
7206;DHT22;3644;53.480;10.004;2024-02-26T10:45:27;8.40;99.90
7206;DHT22;3644;53.480;10.004;2024-02-26T10:47:53;8.30;99.90
7206;DHT22;3644;53.480;10.004;2024-02-26T10:50:19;8.00;99.90
7206;DHT22;3644;53.480;10.004;2024-02-26T10:52:45;8.10;99.90
7206;DHT22;3644;53.480;10.004;2024-02-26T10:55:16;8.40;99.90
7206;DHT22;3644;53.480;10.004;2024-02-26T10:57:45;8.40;99.90
7206;DHT22;3644;53.480;10.004;2024-02-26T11:00:14;8.20;99.90
7206;DHT22;3644;53.480;10.004;2024-02-26T11:02:40;7.90;99.90
7206;DHT22;3644;53.480;10.004;2024-02-26T11:05:07;8.00;99.90
7206;DHT22;3644;53.480;10.004;2024-02-26T11:07:36;8.30;99.90
7206;DHT22;3644;53.480;10.004;2024-02-26T11:10:04;8.00;99.90
7206;DHT22;3644;53.480;10.004;2024-02-26T11:12:32;8.20;99.90
7206;DHT22;3644;53.480;10.004;2024-02-26T11:14:58;8.20;99.90
7206;DHT22;3644;53.480;10.004;2024-02-26T11:17:27;8.00;99.90
7206;DHT22;3644;53.480;10.004;2024-02-26T11:19:56;8.00;99.90
7206;DHT22;3644;53.480;10.004;2024-02-26T11:22:26;8.10;99.90
7206;DHT22;3644;53.480;10.004;2024-02-26T11:24:56;8.30;99.90
7206;DHT22;3644;53.480;10.004;2024-02-26T11:27:29;8.40;99.90
7206;DHT22;3644;53.480;10.004;2024-02-26T11:29:57;8.70;99.90
7206;DHT22;3644;53.480;10.004;2024-02-26T11:32:26;8.90;99.90
7206;DHT22;3644;53.480;10.004;2024-02-26T11:34:53;8.60;99.90
7206;DHT22;3644;53.480;10.004;2024-02-26T11:37:19;8.60;99.90
7206;DHT22;3644;53.480;10.004;2024-02-26T11:39:45;9.00;99.90
7206;DHT22;3644;53.480;10.004;2024-02-26T11:42:15;9.40;99.90
7206;DHT22;3644;53.480;10.004;2024-02-26T11:44:41;9.50;99.90
7206;DHT22;3644;53.480;10.004;2024-02-26T11:47:19;9.70;99.90
7206;DHT22;3644;53.480;10.004;2024-02-26T11:49:45;9.70;99.90
7206;DHT22;3644;53.480;10.004;2024-02-26T11:52:10;9.80;99.90
7206;DHT22;3644;53.480;10.004;2024-02-26T11:54:56;9.60;99.90
7206;DHT22;3644;53.480;10.004;2024-02-26T11:59:55;9.10;99.90
7206;DHT22;3644;53.480;10.004;2024-02-26T12:05:19;9.40;99.90
7206;DHT22;3644;53.480;10.004;2024-02-26T12:08:04;9.60;99.90
7206;DHT22;3644;53.480;10.004;2024-02-26T12:10:33;9.20;99.90
7206;DHT22;3644;53.480;10.004;2024-02-26T12:13:10;9.40;99.90
7206;DHT22;3644;53.480;10.004;2024-02-26T12:15:40;9.60;99.90
7206;DHT22;3644;53.480;10.004;2024-02-26T12:18:07;9.50;99.90
7206;DHT22;3644;53.480;10.004;2024-02-26T12:20:35;9.50;99.90
7206;DHT22;3644;53.480;10.004;2024-02-26T12:23:02;9.50;99.90
7206;DHT22;3644;53.480;10.004;2024-02-26T12:25:29;9.70;99.90
7206;DHT22;3644;53.480;10.004;2024-02-26T12:27:56;9.80;99.90
7206;DHT22;3644;53.480;10.004;2024-02-26T12:30:22;9.90;99.90
7206;DHT22;3644;53.480;10.004;2024-02-26T12:32:48;10.00;99.90
7206;DHT22;3644;53.480;10.004;2024-02-26T12:35:15;10.10;99.90
7206;DHT22;3644;53.480;10.004;2024-02-26T12:37:42;10.20;99.90
7206;DHT22;3644;53.480;10.004;2024-02-26T12:40:11;9.60;99.90
7206;DHT22;3644;53.480;10.004;2024-02-26T12:42:37;9.50;99.90
7206;DHT22;3644;53.480;10.004;2024-02-26T12:45:07;9.30;99.90
7206;DHT22;3644;53.480;10.004;2024-02-26T12:47:44;9.40;99.90
7206;DHT22;3644;53.480;10.004;2024-02-26T12:50:12;9.50;99.90
7206;DHT22;3644;53.480;10.004;2024-02-26T12:52:44;9.70;99.90
7206;DHT22;3644;53.480;10.004;2024-02-26T12:55:13;10.00;99.90
7206;DHT22;3644;53.480;10.004;2024-02-26T12:57:41;10.20;99.90
7206;DHT22;3644;53.480;10.004;2024-02-26T13:00:12;10.10;99.90
7206;DHT22;3644;53.480;10.004;2024-02-26T13:02:39;10.40;99.90
7206;DHT22;3644;53.480;10.004;2024-02-26T13:05:05;10.20;99.90
7206;DHT22;3644;53.480;10.004;2024-02-26T13:07:32;10.10;99.90
7206;DHT22;3644;53.480;10.004;2024-02-26T13:09:58;9.80;99.90
7206;DHT22;3644;53.480;10.004;2024-02-26T13:12:24;9.50;99.90
7206;DHT22;3644;53.480;10.004;2024-02-26T13:15:05;9.60;99.90
7206;DHT22;3644;53.480;10.004;2024-02-26T13:17:34;9.60;99.90
7206;DHT22;3644;53.480;10.004;2024-02-26T13:19:59;9.70;99.90
7206;DHT22;3644;53.480;10.004;2024-02-26T13:22:25;9.50;99.90
7206;DHT22;3644;53.480;10.004;2024-02-26T13:24:55;9.70;99.90
7206;DHT22;3644;53.480;10.004;2024-02-26T13:27:25;9.90;99.90
7206;DHT22;3644;53.480;10.004;2024-02-26T13:30:11;9.80;99.90
7206;DHT22;3644;53.480;10.004;2024-02-26T13:32:41;10.10;99.90
7206;DHT22;3644;53.480;10.004;2024-02-26T13:35:13;9.80;99.90
7206;DHT22;3644;53.480;10.004;2024-02-26T13:37:40;9.80;99.90
7206;DHT22;3644;53.480;10.004;2024-02-26T13:40:11;9.70;99.90
7206;DHT22;3644;53.480;10.004;2024-02-26T13:42:38;9.90;99.90
7206;DHT22;3644;53.480;10.004;2024-02-26T13:45:04;9.80;99.90
7206;DHT22;3644;53.480;10.004;2024-02-26T13:47:34;9.90;99.90
7206;DHT22;3644;53.480;10.004;2024-02-26T13:50:00;9.50;99.90
7206;DHT22;3644;53.480;10.004;2024-02-26T13:52:26;9.70;99.90
7206;DHT22;3644;53.480;10.004;2024-02-26T13:54:52;9.60;99.90
7206;DHT22;3644;53.480;10.004;2024-02-26T13:57:18;9.60;99.90
7206;DHT22;3644;53.480;10.004;2024-02-26T13:59:44;9.20;99.90
7206;DHT22;3644;53.480;10.004;2024-02-26T14:02:10;9.30;99.90
7206;DHT22;3644;53.480;10.004;2024-02-26T14:04:36;9.60;99.90
7206;DHT22;3644;53.480;10.004;2024-02-26T14:07:02;9.50;99.90
7206;DHT22;3644;53.480;10.004;2024-02-26T14:09:28;9.70;99.90
7206;DHT22;3644;53.480;10.004;2024-02-26T14:11:54;9.70;99.90
7206;DHT22;3644;53.480;10.004;2024-02-26T14:14:19;9.70;99.90
7206;DHT22;3644;53.480;10.004;2024-02-26T14:16:45;9.30;99.90
7206;DHT22;3644;53.480;10.004;2024-02-26T14:19:10;9.20;99.90
7206;DHT22;3644;53.480;10.004;2024-02-26T14:21:37;9.40;99.90
7206;DHT22;3644;53.480;10.004;2024-02-26T14:24:02;9.60;99.90
7206;DHT22;3644;53.480;10.004;2024-02-26T14:26:29;9.60;99.90
7206;DHT22;3644;53.480;10.004;2024-02-26T14:28:54;9.50;99.90
7206;DHT22;3644;53.480;10.004;2024-02-26T14:31:20;9.80;99.90
7206;DHT22;3644;53.480;10.004;2024-02-26T14:33:45;9.80;99.90
7206;DHT22;3644;53.480;10.004;2024-02-26T14:36:11;9.80;99.90
7206;DHT22;3644;53.480;10.004;2024-02-26T14:38:37;9.90;99.90
7206;DHT22;3644;53.480;10.004;2024-02-26T14:41:04;9.90;99.90
7206;DHT22;3644;53.480;10.004;2024-02-26T14:43:31;10.10;99.90
7206;DHT22;3644;53.480;10.004;2024-02-26T14:45:58;10.00;99.90
7206;DHT22;3644;53.480;10.004;2024-02-26T14:48:23;9.80;99.90
7206;DHT22;3644;53.480;10.004;2024-02-26T14:50:49;9.70;99.90
7206;DHT22;3644;53.480;10.004;2024-02-26T14:53:17;9.60;99.90
7206;DHT22;3644;53.480;10.004;2024-02-26T14:55:42;9.60;99.90
7206;DHT22;3644;53.480;10.004;2024-02-26T14:58:08;9.50;99.90
7206;DHT22;3644;53.480;10.004;2024-02-26T15:00:36;9.60;99.90
7206;DHT22;3644;53.480;10.004;2024-02-26T15:03:02;9.60;99.90
7206;DHT22;3644;53.480;10.004;2024-02-26T15:05:27;9.80;99.90
7206;DHT22;3644;53.480;10.004;2024-02-26T15:07:53;9.90;99.90
7206;DHT22;3644;53.480;10.004;2024-02-26T15:10:18;9.50;99.90
7206;DHT22;3644;53.480;10.004;2024-02-26T15:12:44;9.40;99.90
7206;DHT22;3644;53.480;10.004;2024-02-26T15:15:09;9.00;99.90
7206;DHT22;3644;53.480;10.004;2024-02-26T15:17:35;8.90;99.90
7206;DHT22;3644;53.480;10.004;2024-02-26T15:20:01;8.80;99.90
7206;DHT22;3644;53.480;10.004;2024-02-26T15:22:27;9.10;99.90
7206;DHT22;3644;53.480;10.004;2024-02-26T15:24:53;9.00;99.90
7206;DHT22;3644;53.480;10.004;2024-02-26T15:27:18;9.00;99.90
7206;DHT22;3644;53.480;10.004;2024-02-26T15:29:44;9.10;99.90
7206;DHT22;3644;53.480;10.004;2024-02-26T15:32:10;9.20;99.90
7206;DHT22;3644;53.480;10.004;2024-02-26T15:34:36;9.20;99.90
7206;DHT22;3644;53.480;10.004;2024-02-26T15:37:02;9.30;99.90
7206;DHT22;3644;53.480;10.004;2024-02-26T15:39:27;9.50;99.90
7206;DHT22;3644;53.480;10.004;2024-02-26T15:41:53;9.60;99.90
7206;DHT22;3644;53.480;10.004;2024-02-26T15:44:18;9.40;99.90
7206;DHT22;3644;53.480;10.004;2024-02-26T15:46:44;9.40;99.90
7206;DHT22;3644;53.480;10.004;2024-02-26T15:49:09;9.60;99.90
7206;DHT22;3644;53.480;10.004;2024-02-26T15:51:35;9.50;99.90
7206;DHT22;3644;53.480;10.004;2024-02-26T15:54:01;9.30;99.90
7206;DHT22;3644;53.480;10.004;2024-02-26T15:56:27;9.00;99.90
7206;DHT22;3644;53.480;10.004;2024-02-26T15:58:53;9.10;99.90
7206;DHT22;3644;53.480;10.004;2024-02-26T16:01:18;8.90;99.90